sensor_id;sensor_type;location;lat;lon;timestamp;P1;durP1;ratioP1;P2;durP2;ratioP2
4873;SDS011;2451;49.970;9.068;2023-07-31T00:02:22;7.47;;;1.77;;
4873;SDS011;2451;49.970;9.068;2023-07-31T00:04:47;5.00;;;1.92;;
4873;SDS011;2451;49.970;9.068;2023-07-31T00:07:14;3.85;;;1.60;;
4873;SDS011;2451;49.970;9.068;2023-07-31T00:09:39;5.97;;;1.70;;
4873;SDS011;2451;49.970;9.068;2023-07-31T00:12:05;4.60;;;1.70;;
4873;SDS011;2451;49.970;9.068;2023-07-31T00:14:31;4.03;;;1.65;;
4873;SDS011;2451;49.970;9.068;2023-07-31T00:16:56;5.00;;;1.83;;
4873;SDS011;2451;49.970;9.068;2023-07-31T00:19:22;5.75;;;2.13;;
4873;SDS011;2451;49.970;9.068;2023-07-31T00:21:47;6.00;;;1.90;;
4873;SDS011;2451;49.970;9.068;2023-07-31T00:24:13;7.28;;;1.80;;
4873;SDS011;2451;49.970;9.068;2023-07-31T00:26:38;6.00;;;1.92;;
4873;SDS011;2451;49.970;9.068;2023-07-31T00:29:04;6.47;;;1.77;;
4873;SDS011;2451;49.970;9.068;2023-07-31T00:31:29;5.97;;;1.85;;
4873;SDS011;2451;49.970;9.068;2023-07-31T00:33:55;5.18;;;2.00;;
4873;SDS011;2451;49.970;9.068;2023-07-31T00:36:20;6.22;;;1.90;;
4873;SDS011;2451;49.970;9.068;2023-07-31T00:38:46;5.03;;;1.95;;
4873;SDS011;2451;49.970;9.068;2023-07-31T00:41:11;5.15;;;1.92;;
4873;SDS011;2451;49.970;9.068;2023-07-31T00:43:37;5.47;;;2.05;;
4873;SDS011;2451;49.970;9.068;2023-07-31T00:46:02;6.68;;;2.03;;
4873;SDS011;2451;49.970;9.068;2023-07-31T00:48:28;5.68;;;2.03;;
4873;SDS011;2451;49.970;9.068;2023-07-31T00:50:54;5.85;;;1.90;;
4873;SDS011;2451;49.970;9.068;2023-07-31T00:53:19;5.95;;;2.00;;
4873;SDS011;2451;49.970;9.068;2023-07-31T00:55:45;6.00;;;1.98;;
4873;SDS011;2451;49.970;9.068;2023-07-31T00:58:11;8.80;;;2.15;;
4873;SDS011;2451;49.970;9.068;2023-07-31T01:00:36;6.70;;;2.58;;
4873;SDS011;2451;49.970;9.068;2023-07-31T01:03:02;5.80;;;1.95;;
4873;SDS011;2451;49.970;9.068;2023-07-31T01:11:10;5.68;;;2.00;;
4873;SDS011;2451;49.970;9.068;2023-07-31T01:13:44;5.47;;;1.90;;
4873;SDS011;2451;49.970;9.068;2023-07-31T01:16:10;7.05;;;2.00;;
4873;SDS011;2451;49.970;9.068;2023-07-31T01:18:37;6.32;;;2.35;;
4873;SDS011;2451;49.970;9.068;2023-07-31T01:24:19;6.55;;;2.40;;
4873;SDS011;2451;49.970;9.068;2023-07-31T01:27:04;6.05;;;2.00;;
4873;SDS011;2451;49.970;9.068;2023-07-31T01:29:38;5.70;;;2.03;;
4873;SDS011;2451;49.970;9.068;2023-07-31T01:32:12;5.82;;;2.28;;
4873;SDS011;2451;49.970;9.068;2023-07-31T01:34:39;9.10;;;2.08;;
4873;SDS011;2451;49.970;9.068;2023-07-31T01:37:06;5.85;;;2.30;;
4873;SDS011;2451;49.970;9.068;2023-07-31T01:39:32;4.55;;;2.10;;
4873;SDS011;2451;49.970;9.068;2023-07-31T01:41:57;7.07;;;2.10;;
4873;SDS011;2451;49.970;9.068;2023-07-31T01:44:23;6.47;;;2.10;;
4873;SDS011;2451;49.970;9.068;2023-07-31T01:46:48;7.20;;;2.00;;
4873;SDS011;2451;49.970;9.068;2023-07-31T01:49:14;7.07;;;1.98;;
4873;SDS011;2451;49.970;9.068;2023-07-31T01:51:40;5.68;;;2.33;;
4873;SDS011;2451;49.970;9.068;2023-07-31T01:54:05;5.45;;;2.10;;
4873;SDS011;2451;49.970;9.068;2023-07-31T01:56:31;7.20;;;2.00;;
4873;SDS011;2451;49.970;9.068;2023-07-31T01:58:56;6.15;;;2.10;;
4873;SDS011;2451;49.970;9.068;2023-07-31T02:01:22;5.75;;;2.10;;
4873;SDS011;2451;49.970;9.068;2023-07-31T02:03:48;5.90;;;2.30;;
4873;SDS011;2451;49.970;9.068;2023-07-31T02:06:13;8.43;;;2.15;;
4873;SDS011;2451;49.970;9.068;2023-07-31T02:08:39;6.25;;;2.28;;
4873;SDS011;2451;49.970;9.068;2023-07-31T02:11:04;6.13;;;2.20;;
4873;SDS011;2451;49.970;9.068;2023-07-31T02:13:30;4.63;;;2.00;;
4873;SDS011;2451;49.970;9.068;2023-07-31T02:15:55;6.93;;;2.20;;
4873;SDS011;2451;49.970;9.068;2023-07-31T02:18:22;5.90;;;2.22;;
4873;SDS011;2451;49.970;9.068;2023-07-31T02:20:50;6.57;;;2.50;;
4873;SDS011;2451;49.970;9.068;2023-07-31T02:23:17;6.55;;;2.30;;
4873;SDS011;2451;49.970;9.068;2023-07-31T02:25:43;6.32;;;2.53;;
4873;SDS011;2451;49.970;9.068;2023-07-31T02:28:09;6.88;;;2.35;;
4873;SDS011;2451;49.970;9.068;2023-07-31T02:30:34;5.90;;;2.25;;
4873;SDS011;2451;49.970;9.068;2023-07-31T02:33:00;6.97;;;2.50;;
4873;SDS011;2451;49.970;9.068;2023-07-31T02:35:26;8.95;;;2.30;;
4873;SDS011;2451;49.970;9.068;2023-07-31T02:37:51;6.45;;;2.00;;
4873;SDS011;2451;49.970;9.068;2023-07-31T02:40:17;7.50;;;2.70;;
4873;SDS011;2451;49.970;9.068;2023-07-31T02:42:42;7.45;;;2.63;;
4873;SDS011;2451;49.970;9.068;2023-07-31T02:45:08;6.03;;;2.38;;
4873;SDS011;2451;49.970;9.068;2023-07-31T02:47:34;6.05;;;2.00;;
4873;SDS011;2451;49.970;9.068;2023-07-31T02:49:59;7.15;;;2.35;;
4873;SDS011;2451;49.970;9.068;2023-07-31T02:52:25;5.38;;;2.17;;
4873;SDS011;2451;49.970;9.068;2023-07-31T02:54:51;6.70;;;2.40;;
4873;SDS011;2451;49.970;9.068;2023-07-31T02:57:17;8.73;;;2.40;;
4873;SDS011;2451;49.970;9.068;2023-07-31T02:59:42;6.13;;;2.33;;
4873;SDS011;2451;49.970;9.068;2023-07-31T03:02:08;8.15;;;2.47;;
4873;SDS011;2451;49.970;9.068;2023-07-31T03:04:33;6.13;;;2.33;;
4873;SDS011;2451;49.970;9.068;2023-07-31T03:06:59;8.30;;;2.60;;
4873;SDS011;2451;49.970;9.068;2023-07-31T03:09:24;7.90;;;2.67;;
4873;SDS011;2451;49.970;9.068;2023-07-31T03:11:50;9.82;;;2.70;;
4873;SDS011;2451;49.970;9.068;2023-07-31T03:14:15;6.78;;;2.50;;
4873;SDS011;2451;49.970;9.068;2023-07-31T03:16:41;5.50;;;2.25;;
4873;SDS011;2451;49.970;9.068;2023-07-31T03:19:06;6.03;;;2.70;;
4873;SDS011;2451;49.970;9.068;2023-07-31T03:21:32;8.30;;;2.60;;
4873;SDS011;2451;49.970;9.068;2023-07-31T03:23:57;6.55;;;2.30;;
4873;SDS011;2451;49.970;9.068;2023-07-31T03:26:23;7.40;;;2.70;;
4873;SDS011;2451;49.970;9.068;2023-07-31T03:28:48;6.32;;;2.42;;
4873;SDS011;2451;49.970;9.068;2023-07-31T03:31:14;9.90;;;2.42;;
4873;SDS011;2451;49.970;9.068;2023-07-31T03:33:40;6.43;;;1.98;;
4873;SDS011;2451;49.970;9.068;2023-07-31T03:36:05;7.30;;;2.47;;
4873;SDS011;2451;49.970;9.068;2023-07-31T03:38:31;6.85;;;2.80;;
4873;SDS011;2451;49.970;9.068;2023-07-31T03:40:56;7.70;;;2.80;;
4873;SDS011;2451;49.970;9.068;2023-07-31T03:43:23;7.45;;;2.40;;
4873;SDS011;2451;49.970;9.068;2023-07-31T03:45:50;9.30;;;2.90;;
4873;SDS011;2451;49.970;9.068;2023-07-31T03:48:15;8.10;;;2.53;;
4873;SDS011;2451;49.970;9.068;2023-07-31T03:50:41;5.90;;;2.65;;
4873;SDS011;2451;49.970;9.068;2023-07-31T03:53:07;7.40;;;3.08;;
4873;SDS011;2451;49.970;9.068;2023-07-31T03:55:32;7.88;;;2.65;;
4873;SDS011;2451;49.970;9.068;2023-07-31T03:57:58;8.70;;;2.70;;
4873;SDS011;2451;49.970;9.068;2023-07-31T04:00:25;9.13;;;2.67;;
4873;SDS011;2451;49.970;9.068;2023-07-31T04:02:52;7.05;;;2.78;;
4873;SDS011;2451;49.970;9.068;2023-07-31T04:05:17;8.85;;;2.90;;
4873;SDS011;2451;49.970;9.068;2023-07-31T04:07:43;7.15;;;2.50;;
4873;SDS011;2451;49.970;9.068;2023-07-31T04:10:08;9.18;;;2.60;;
4873;SDS011;2451;49.970;9.068;2023-07-31T04:12:34;8.63;;;2.50;;
4873;SDS011;2451;49.970;9.068;2023-07-31T04:14:59;10.02;;;2.60;;
4873;SDS011;2451;49.970;9.068;2023-07-31T04:17:25;7.65;;;2.70;;
4873;SDS011;2451;49.970;9.068;2023-07-31T04:19:51;9.18;;;2.67;;
4873;SDS011;2451;49.970;9.068;2023-07-31T04:22:16;9.25;;;2.40;;
4873;SDS011;2451;49.970;9.068;2023-07-31T04:24:42;7.25;;;2.45;;
4873;SDS011;2451;49.970;9.068;2023-07-31T04:27:07;9.63;;;2.70;;
4873;SDS011;2451;49.970;9.068;2023-07-31T04:29:33;7.38;;;2.30;;
4873;SDS011;2451;49.970;9.068;2023-07-31T04:31:59;5.88;;;2.58;;
4873;SDS011;2451;49.970;9.068;2023-07-31T04:34:24;6.05;;;2.72;;
4873;SDS011;2451;49.970;9.068;2023-07-31T04:36:50;9.05;;;2.50;;
4873;SDS011;2451;49.970;9.068;2023-07-31T04:39:15;8.93;;;2.70;;
4873;SDS011;2451;49.970;9.068;2023-07-31T04:41:41;6.75;;;2.50;;
4873;SDS011;2451;49.970;9.068;2023-07-31T04:44:06;7.57;;;2.55;;
4873;SDS011;2451;49.970;9.068;2023-07-31T04:46:32;6.30;;;2.70;;
4873;SDS011;2451;49.970;9.068;2023-07-31T04:48:57;6.05;;;2.60;;
4873;SDS011;2451;49.970;9.068;2023-07-31T04:51:23;6.45;;;2.30;;
4873;SDS011;2451;49.970;9.068;2023-07-31T04:53:48;7.15;;;2.55;;
4873;SDS011;2451;49.970;9.068;2023-07-31T04:56:14;7.15;;;2.50;;
4873;SDS011;2451;49.970;9.068;2023-07-31T04:58:40;6.95;;;2.40;;
4873;SDS011;2451;49.970;9.068;2023-07-31T05:01:06;6.65;;;2.45;;
4873;SDS011;2451;49.970;9.068;2023-07-31T05:03:31;7.65;;;2.42;;
4873;SDS011;2451;49.970;9.068;2023-07-31T05:05:57;6.70;;;2.58;;
4873;SDS011;2451;49.970;9.068;2023-07-31T05:08:22;6.25;;;2.65;;
4873;SDS011;2451;49.970;9.068;2023-07-31T05:10:48;5.95;;;2.38;;
4873;SDS011;2451;49.970;9.068;2023-07-31T05:13:13;8.70;;;2.63;;
4873;SDS011;2451;49.970;9.068;2023-07-31T05:15:40;6.03;;;2.63;;
4873;SDS011;2451;49.970;9.068;2023-07-31T05:18:06;7.53;;;2.78;;
4873;SDS011;2451;49.970;9.068;2023-07-31T05:20:31;7.22;;;2.65;;
4873;SDS011;2451;49.970;9.068;2023-07-31T05:22:57;6.78;;;2.55;;
4873;SDS011;2451;49.970;9.068;2023-07-31T05:25:22;6.05;;;2.42;;
4873;SDS011;2451;49.970;9.068;2023-07-31T05:27:48;7.45;;;2.65;;
4873;SDS011;2451;49.970;9.068;2023-07-31T05:30:13;6.35;;;2.83;;
4873;SDS011;2451;49.970;9.068;2023-07-31T05:32:39;7.35;;;2.80;;
4873;SDS011;2451;49.970;9.068;2023-07-31T05:35:05;5.45;;;2.35;;
4873;SDS011;2451;49.970;9.068;2023-07-31T05:37:30;7.63;;;2.80;;
4873;SDS011;2451;49.970;9.068;2023-07-31T05:39:56;9.30;;;2.83;;
4873;SDS011;2451;49.970;9.068;2023-07-31T05:42:21;5.07;;;2.25;;
4873;SDS011;2451;49.970;9.068;2023-07-31T05:44:47;6.32;;;2.50;;
4873;SDS011;2451;49.970;9.068;2023-07-31T05:47:12;8.23;;;2.70;;
4873;SDS011;2451;49.970;9.068;2023-07-31T05:49:38;6.75;;;2.40;;
4873;SDS011;2451;49.970;9.068;2023-07-31T05:52:04;8.75;;;2.45;;
4873;SDS011;2451;49.970;9.068;2023-07-31T05:54:29;8.50;;;2.60;;
4873;SDS011;2451;49.970;9.068;2023-07-31T05:56:56;6.75;;;2.55;;
4873;SDS011;2451;49.970;9.068;2023-07-31T05:59:22;9.18;;;2.63;;
4873;SDS011;2451;49.970;9.068;2023-07-31T06:01:47;9.55;;;2.60;;
4873;SDS011;2451;49.970;9.068;2023-07-31T06:04:13;9.25;;;2.70;;
4873;SDS011;2451;49.970;9.068;2023-07-31T06:06:38;7.75;;;2.78;;
4873;SDS011;2451;49.970;9.068;2023-07-31T06:09:04;7.75;;;2.95;;
4873;SDS011;2451;49.970;9.068;2023-07-31T06:11:29;6.38;;;2.75;;
4873;SDS011;2451;49.970;9.068;2023-07-31T06:13:55;6.38;;;2.53;;
4873;SDS011;2451;49.970;9.068;2023-07-31T06:16:20;6.80;;;2.50;;
4873;SDS011;2451;49.970;9.068;2023-07-31T06:18:46;9.43;;;2.92;;
4873;SDS011;2451;49.970;9.068;2023-07-31T06:21:12;6.63;;;2.30;;
4873;SDS011;2451;49.970;9.068;2023-07-31T06:23:37;7.75;;;2.83;;
4873;SDS011;2451;49.970;9.068;2023-07-31T06:26:03;7.45;;;3.05;;
4873;SDS011;2451;49.970;9.068;2023-07-31T06:28:29;11.40;;;2.95;;
4873;SDS011;2451;49.970;9.068;2023-07-31T06:30:55;9.20;;;2.95;;
4873;SDS011;2451;49.970;9.068;2023-07-31T06:33:21;6.53;;;2.97;;
4873;SDS011;2451;49.970;9.068;2023-07-31T06:35:47;6.90;;;2.58;;
4873;SDS011;2451;49.970;9.068;2023-07-31T06:38:12;7.80;;;2.65;;
4873;SDS011;2451;49.970;9.068;2023-07-31T06:40:38;5.78;;;2.63;;
4873;SDS011;2451;49.970;9.068;2023-07-31T06:43:03;7.47;;;2.67;;
4873;SDS011;2451;49.970;9.068;2023-07-31T06:45:33;7.65;;;2.50;;
4873;SDS011;2451;49.970;9.068;2023-07-31T06:48:01;6.37;;;3.00;;
4873;SDS011;2451;49.970;9.068;2023-07-31T06:50:30;7.88;;;2.80;;
4873;SDS011;2451;49.970;9.068;2023-07-31T06:52:56;6.80;;;2.53;;
4873;SDS011;2451;49.970;9.068;2023-07-31T06:55:22;8.52;;;3.03;;
4873;SDS011;2451;49.970;9.068;2023-07-31T06:57:50;5.47;;;2.60;;
4873;SDS011;2451;49.970;9.068;2023-07-31T07:00:17;6.53;;;2.58;;
4873;SDS011;2451;49.970;9.068;2023-07-31T07:02:44;8.55;;;2.53;;
4873;SDS011;2451;49.970;9.068;2023-07-31T07:05:10;7.82;;;2.50;;
4873;SDS011;2451;49.970;9.068;2023-07-31T07:07:35;6.43;;;2.33;;
4873;SDS011;2451;49.970;9.068;2023-07-31T07:10:01;8.43;;;2.88;;
4873;SDS011;2451;49.970;9.068;2023-07-31T07:12:29;6.78;;;3.10;;
4873;SDS011;2451;49.970;9.068;2023-07-31T07:14:56;7.68;;;2.58;;
4873;SDS011;2451;49.970;9.068;2023-07-31T07:17:22;4.65;;;2.45;;
4873;SDS011;2451;49.970;9.068;2023-07-31T07:19:48;6.10;;;2.53;;
4873;SDS011;2451;49.970;9.068;2023-07-31T07:22:14;5.03;;;2.33;;
4873;SDS011;2451;49.970;9.068;2023-07-31T07:24:39;5.82;;;2.50;;
4873;SDS011;2451;49.970;9.068;2023-07-31T07:27:05;8.13;;;2.83;;
4873;SDS011;2451;49.970;9.068;2023-07-31T07:29:31;6.05;;;2.50;;
4873;SDS011;2451;49.970;9.068;2023-07-31T07:31:56;8.43;;;2.50;;
4873;SDS011;2451;49.970;9.068;2023-07-31T07:34:28;7.75;;;2.75;;
4873;SDS011;2451;49.970;9.068;2023-07-31T07:36:54;7.05;;;2.47;;
4873;SDS011;2451;49.970;9.068;2023-07-31T07:39:20;6.57;;;2.92;;
4873;SDS011;2451;49.970;9.068;2023-07-31T07:41:45;7.72;;;2.78;;
4873;SDS011;2451;49.970;9.068;2023-07-31T07:44:11;8.30;;;2.90;;
4873;SDS011;2451;49.970;9.068;2023-07-31T07:46:37;5.50;;;2.67;;
4873;SDS011;2451;49.970;9.068;2023-07-31T07:49:03;7.70;;;2.72;;
4873;SDS011;2451;49.970;9.068;2023-07-31T07:51:28;6.63;;;2.97;;
4873;SDS011;2451;49.970;9.068;2023-07-31T07:53:55;6.88;;;2.90;;
4873;SDS011;2451;49.970;9.068;2023-07-31T07:56:21;6.32;;;2.30;;
4873;SDS011;2451;49.970;9.068;2023-07-31T07:58:48;8.63;;;2.70;;
4873;SDS011;2451;49.970;9.068;2023-07-31T08:01:14;6.88;;;2.85;;
4873;SDS011;2451;49.970;9.068;2023-07-31T08:03:40;7.40;;;2.70;;
4873;SDS011;2451;49.970;9.068;2023-07-31T08:06:06;7.45;;;2.47;;
4873;SDS011;2451;49.970;9.068;2023-07-31T08:08:34;8.02;;;3.10;;
4873;SDS011;2451;49.970;9.068;2023-07-31T08:11:00;5.75;;;2.53;;
4873;SDS011;2451;49.970;9.068;2023-07-31T08:13:25;7.68;;;2.45;;
4873;SDS011;2451;49.970;9.068;2023-07-31T08:15:51;9.32;;;2.60;;
4873;SDS011;2451;49.970;9.068;2023-07-31T08:18:17;7.00;;;2.83;;
4873;SDS011;2451;49.970;9.068;2023-07-31T08:20:42;7.63;;;2.75;;
4873;SDS011;2451;49.970;9.068;2023-07-31T08:23:08;8.10;;;2.95;;
4873;SDS011;2451;49.970;9.068;2023-07-31T08:25:34;5.18;;;2.72;;
4873;SDS011;2451;49.970;9.068;2023-07-31T08:28:01;5.45;;;2.45;;
4873;SDS011;2451;49.970;9.068;2023-07-31T08:30:27;5.57;;;2.50;;
4873;SDS011;2451;49.970;9.068;2023-07-31T08:32:52;8.70;;;2.35;;
4873;SDS011;2451;49.970;9.068;2023-07-31T08:35:18;6.80;;;2.28;;
4873;SDS011;2451;49.970;9.068;2023-07-31T08:37:43;7.45;;;2.60;;
4873;SDS011;2451;49.970;9.068;2023-07-31T08:40:09;5.35;;;2.47;;
4873;SDS011;2451;49.970;9.068;2023-07-31T08:42:42;7.22;;;2.45;;
4873;SDS011;2451;49.970;9.068;2023-07-31T08:45:15;7.20;;;2.90;;
4873;SDS011;2451;49.970;9.068;2023-07-31T08:47:45;7.80;;;2.40;;
4873;SDS011;2451;49.970;9.068;2023-07-31T08:50:13;4.80;;;2.35;;
4873;SDS011;2451;49.970;9.068;2023-07-31T08:52:39;7.50;;;2.90;;
4873;SDS011;2451;49.970;9.068;2023-07-31T08:55:06;7.00;;;2.63;;
4873;SDS011;2451;49.970;9.068;2023-07-31T08:57:32;5.75;;;2.40;;
4873;SDS011;2451;49.970;9.068;2023-07-31T08:59:59;6.93;;;2.50;;
4873;SDS011;2451;49.970;9.068;2023-07-31T09:02:26;7.45;;;2.70;;
4873;SDS011;2451;49.970;9.068;2023-07-31T09:04:59;8.18;;;2.45;;
4873;SDS011;2451;49.970;9.068;2023-07-31T09:07:26;5.97;;;2.60;;
4873;SDS011;2451;49.970;9.068;2023-07-31T09:09:53;7.75;;;3.00;;
4873;SDS011;2451;49.970;9.068;2023-07-31T09:12:19;5.57;;;2.33;;
4873;SDS011;2451;49.970;9.068;2023-07-31T09:14:45;10.70;;;2.72;;
4873;SDS011;2451;49.970;9.068;2023-07-31T09:17:11;7.40;;;2.55;;
4873;SDS011;2451;49.970;9.068;2023-07-31T09:19:36;6.57;;;2.30;;
4873;SDS011;2451;49.970;9.068;2023-07-31T09:22:03;7.50;;;2.42;;
4873;SDS011;2451;49.970;9.068;2023-07-31T09:24:32;4.97;;;2.30;;
4873;SDS011;2451;49.970;9.068;2023-07-31T09:26:59;6.40;;;2.90;;
4873;SDS011;2451;49.970;9.068;2023-07-31T09:29:26;5.07;;;2.42;;
4873;SDS011;2451;49.970;9.068;2023-07-31T09:31:53;5.82;;;2.70;;
4873;SDS011;2451;49.970;9.068;2023-07-31T09:34:20;6.32;;;2.85;;
4873;SDS011;2451;49.970;9.068;2023-07-31T09:36:53;7.25;;;2.65;;
4873;SDS011;2451;49.970;9.068;2023-07-31T09:39:18;4.90;;;2.50;;
4873;SDS011;2451;49.970;9.068;2023-07-31T09:41:48;6.68;;;2.60;;
4873;SDS011;2451;49.970;9.068;2023-07-31T09:44:19;6.55;;;2.75;;
4873;SDS011;2451;49.970;9.068;2023-07-31T09:46:45;6.97;;;2.80;;
4873;SDS011;2451;49.970;9.068;2023-07-31T09:49:11;7.72;;;2.55;;
4873;SDS011;2451;49.970;9.068;2023-07-31T09:51:38;7.07;;;3.00;;
4873;SDS011;2451;49.970;9.068;2023-07-31T09:54:13;6.88;;;3.10;;
4873;SDS011;2451;49.970;9.068;2023-07-31T09:59:12;7.95;;;3.05;;
4873;SDS011;2451;49.970;9.068;2023-07-31T10:01:42;5.47;;;2.30;;
4873;SDS011;2451;49.970;9.068;2023-07-31T10:04:11;6.32;;;2.70;;
4873;SDS011;2451;49.970;9.068;2023-07-31T10:06:38;8.10;;;2.80;;
4873;SDS011;2451;49.970;9.068;2023-07-31T10:09:05;7.38;;;2.92;;
4873;SDS011;2451;49.970;9.068;2023-07-31T10:11:37;8.48;;;3.00;;
4873;SDS011;2451;49.970;9.068;2023-07-31T10:14:06;8.45;;;2.92;;
4873;SDS011;2451;49.970;9.068;2023-07-31T10:16:32;7.18;;;2.70;;
4873;SDS011;2451;49.970;9.068;2023-07-31T10:18:59;5.28;;;2.72;;
4873;SDS011;2451;49.970;9.068;2023-07-31T10:21:25;6.45;;;2.80;;
4873;SDS011;2451;49.970;9.068;2023-07-31T10:23:51;8.55;;;3.20;;
4873;SDS011;2451;49.970;9.068;2023-07-31T10:26:17;8.48;;;2.83;;
4873;SDS011;2451;49.970;9.068;2023-07-31T10:28:44;6.03;;;2.60;;
4873;SDS011;2451;49.970;9.068;2023-07-31T10:31:11;8.60;;;3.10;;
4873;SDS011;2451;49.970;9.068;2023-07-31T10:33:38;7.18;;;2.75;;
4873;SDS011;2451;49.970;9.068;2023-07-31T10:36:20;8.45;;;2.90;;
4873;SDS011;2451;49.970;9.068;2023-07-31T10:38:48;5.18;;;2.70;;
4873;SDS011;2451;49.970;9.068;2023-07-31T10:41:14;6.35;;;2.70;;
4873;SDS011;2451;49.970;9.068;2023-07-31T10:43:40;7.07;;;2.75;;
4873;SDS011;2451;49.970;9.068;2023-07-31T10:46:06;8.43;;;3.53;;
4873;SDS011;2451;49.970;9.068;2023-07-31T10:48:33;8.48;;;2.90;;
4873;SDS011;2451;49.970;9.068;2023-07-31T10:51:01;6.45;;;2.75;;
4873;SDS011;2451;49.970;9.068;2023-07-31T10:53:33;6.85;;;3.03;;
4873;SDS011;2451;49.970;9.068;2023-07-31T10:55:59;5.78;;;2.88;;
4873;SDS011;2451;49.970;9.068;2023-07-31T10:58:29;9.98;;;3.45;;
4873;SDS011;2451;49.970;9.068;2023-07-31T11:00:57;9.98;;;2.88;;
4873;SDS011;2451;49.970;9.068;2023-07-31T11:03:40;7.10;;;2.85;;
4873;SDS011;2451;49.970;9.068;2023-07-31T11:06:08;6.75;;;3.03;;
4873;SDS011;2451;49.970;9.068;2023-07-31T11:08:35;9.35;;;2.80;;
4873;SDS011;2451;49.970;9.068;2023-07-31T11:11:07;7.05;;;3.03;;
4873;SDS011;2451;49.970;9.068;2023-07-31T11:13:39;6.68;;;2.88;;
4873;SDS011;2451;49.970;9.068;2023-07-31T11:16:10;8.50;;;3.17;;
4873;SDS011;2451;49.970;9.068;2023-07-31T11:18:38;10.52;;;3.30;;
4873;SDS011;2451;49.970;9.068;2023-07-31T11:21:06;7.60;;;3.05;;
4873;SDS011;2451;49.970;9.068;2023-07-31T11:23:31;6.50;;;3.13;;
4873;SDS011;2451;49.970;9.068;2023-07-31T11:26:01;9.65;;;3.20;;
4873;SDS011;2451;49.970;9.068;2023-07-31T11:28:30;6.97;;;2.90;;
4873;SDS011;2451;49.970;9.068;2023-07-31T11:30:57;7.18;;;2.65;;
4873;SDS011;2451;49.970;9.068;2023-07-31T11:33:23;8.75;;;3.05;;
4873;SDS011;2451;49.970;9.068;2023-07-31T11:35:48;8.00;;;3.33;;
4873;SDS011;2451;49.970;9.068;2023-07-31T11:38:29;6.15;;;2.88;;
4873;SDS011;2451;49.970;9.068;2023-07-31T11:40:59;7.63;;;3.10;;
4873;SDS011;2451;49.970;9.068;2023-07-31T11:43:30;8.15;;;3.17;;
4873;SDS011;2451;49.970;9.068;2023-07-31T11:45:57;8.73;;;3.47;;
4873;SDS011;2451;49.970;9.068;2023-07-31T11:48:24;7.15;;;2.90;;
4873;SDS011;2451;49.970;9.068;2023-07-31T11:50:52;6.07;;;3.00;;
4873;SDS011;2451;49.970;9.068;2023-07-31T11:53:21;9.88;;;3.15;;
4873;SDS011;2451;49.970;9.068;2023-07-31T11:55:51;10.02;;;3.10;;
4873;SDS011;2451;49.970;9.068;2023-07-31T11:58:17;10.15;;;3.00;;
4873;SDS011;2451;49.970;9.068;2023-07-31T12:00:44;5.35;;;2.80;;
4873;SDS011;2451;49.970;9.068;2023-07-31T12:03:10;5.40;;;2.63;;
4873;SDS011;2451;49.970;9.068;2023-07-31T12:05:36;6.78;;;3.00;;
4873;SDS011;2451;49.970;9.068;2023-07-31T12:08:05;12.45;;;3.00;;
4873;SDS011;2451;49.970;9.068;2023-07-31T12:10:34;6.18;;;3.15;;
4873;SDS011;2451;49.970;9.068;2023-07-31T12:15:32;8.35;;;2.65;;
4873;SDS011;2451;49.970;9.068;2023-07-31T12:17:58;6.15;;;2.80;;
4873;SDS011;2451;49.970;9.068;2023-07-31T12:20:24;7.32;;;3.00;;
4873;SDS011;2451;49.970;9.068;2023-07-31T12:22:49;8.52;;;2.92;;
4873;SDS011;2451;49.970;9.068;2023-07-31T12:25:15;6.63;;;3.28;;
4873;SDS011;2451;49.970;9.068;2023-07-31T12:27:44;7.88;;;3.35;;
4873;SDS011;2451;49.970;9.068;2023-07-31T12:32:54;7.32;;;3.05;;
4873;SDS011;2451;49.970;9.068;2023-07-31T12:35:20;7.38;;;3.50;;
4873;SDS011;2451;49.970;9.068;2023-07-31T12:37:46;6.00;;;2.72;;
4873;SDS011;2451;49.970;9.068;2023-07-31T12:40:11;6.68;;;3.10;;
4873;SDS011;2451;49.970;9.068;2023-07-31T12:42:37;9.18;;;3.08;;
4873;SDS011;2451;49.970;9.068;2023-07-31T12:45:03;9.18;;;2.88;;
4873;SDS011;2451;49.970;9.068;2023-07-31T12:47:29;8.68;;;2.75;;
4873;SDS011;2451;49.970;9.068;2023-07-31T12:49:55;8.35;;;3.53;;
4873;SDS011;2451;49.970;9.068;2023-07-31T12:52:20;7.30;;;3.03;;
4873;SDS011;2451;49.970;9.068;2023-07-31T12:54:46;10.93;;;3.28;;
4873;SDS011;2451;49.970;9.068;2023-07-31T12:57:11;7.82;;;3.20;;
4873;SDS011;2451;49.970;9.068;2023-07-31T12:59:37;7.68;;;3.15;;
4873;SDS011;2451;49.970;9.068;2023-07-31T13:02:02;5.78;;;2.40;;
4873;SDS011;2451;49.970;9.068;2023-07-31T13:04:28;7.70;;;3.10;;
4873;SDS011;2451;49.970;9.068;2023-07-31T13:06:53;9.80;;;3.00;;
4873;SDS011;2451;49.970;9.068;2023-07-31T13:09:19;7.57;;;2.90;;
4873;SDS011;2451;49.970;9.068;2023-07-31T13:11:45;6.65;;;3.20;;
4873;SDS011;2451;49.970;9.068;2023-07-31T13:14:10;9.13;;;2.95;;
4873;SDS011;2451;49.970;9.068;2023-07-31T13:16:37;7.85;;;3.10;;
4873;SDS011;2451;49.970;9.068;2023-07-31T13:19:02;7.03;;;2.95;;
4873;SDS011;2451;49.970;9.068;2023-07-31T13:21:28;7.10;;;3.17;;
4873;SDS011;2451;49.970;9.068;2023-07-31T13:23:54;5.57;;;3.00;;
4873;SDS011;2451;49.970;9.068;2023-07-31T13:26:22;5.72;;;3.05;;
4873;SDS011;2451;49.970;9.068;2023-07-31T13:28:48;6.93;;;3.00;;
4873;SDS011;2451;49.970;9.068;2023-07-31T13:31:13;8.45;;;3.05;;
4873;SDS011;2451;49.970;9.068;2023-07-31T13:33:39;8.18;;;3.00;;
4873;SDS011;2451;49.970;9.068;2023-07-31T13:36:04;7.78;;;2.78;;
4873;SDS011;2451;49.970;9.068;2023-07-31T13:38:30;8.48;;;3.40;;
4873;SDS011;2451;49.970;9.068;2023-07-31T13:40:56;9.48;;;3.20;;
4873;SDS011;2451;49.970;9.068;2023-07-31T13:43:21;6.03;;;2.90;;
4873;SDS011;2451;49.970;9.068;2023-07-31T13:45:47;8.10;;;3.20;;
4873;SDS011;2451;49.970;9.068;2023-07-31T13:48:12;6.05;;;2.72;;
4873;SDS011;2451;49.970;9.068;2023-07-31T13:50:38;7.40;;;2.72;;
4873;SDS011;2451;49.970;9.068;2023-07-31T13:53:03;10.63;;;3.28;;
4873;SDS011;2451;49.970;9.068;2023-07-31T13:55:29;7.47;;;3.15;;
4873;SDS011;2451;49.970;9.068;2023-07-31T13:57:54;8.07;;;2.95;;
4873;SDS011;2451;49.970;9.068;2023-07-31T14:00:20;8.23;;;3.20;;
4873;SDS011;2451;49.970;9.068;2023-07-31T14:02:46;9.30;;;3.33;;
4873;SDS011;2451;49.970;9.068;2023-07-31T14:05:11;6.88;;;3.05;;
4873;SDS011;2451;49.970;9.068;2023-07-31T14:07:37;8.82;;;3.00;;
4873;SDS011;2451;49.970;9.068;2023-07-31T14:10:02;6.22;;;2.80;;
4873;SDS011;2451;49.970;9.068;2023-07-31T14:12:29;7.78;;;2.97;;
4873;SDS011;2451;49.970;9.068;2023-07-31T14:14:55;5.07;;;2.95;;
4873;SDS011;2451;49.970;9.068;2023-07-31T14:17:21;8.23;;;2.75;;
4873;SDS011;2451;49.970;9.068;2023-07-31T14:19:46;6.65;;;3.30;;
4873;SDS011;2451;49.970;9.068;2023-07-31T14:22:12;6.47;;;2.80;;
4873;SDS011;2451;49.970;9.068;2023-07-31T14:24:37;7.50;;;2.90;;
4873;SDS011;2451;49.970;9.068;2023-07-31T14:27:03;6.70;;;2.95;;
4873;SDS011;2451;49.970;9.068;2023-07-31T14:29:29;7.10;;;2.72;;
4873;SDS011;2451;49.970;9.068;2023-07-31T14:31:55;7.32;;;2.97;;
4873;SDS011;2451;49.970;9.068;2023-07-31T14:34:20;8.35;;;2.83;;
4873;SDS011;2451;49.970;9.068;2023-07-31T14:36:46;8.45;;;2.97;;
4873;SDS011;2451;49.970;9.068;2023-07-31T14:39:11;6.78;;;2.80;;
4873;SDS011;2451;49.970;9.068;2023-07-31T14:41:37;6.07;;;2.60;;
4873;SDS011;2451;49.970;9.068;2023-07-31T14:44:02;7.18;;;3.30;;
4873;SDS011;2451;49.970;9.068;2023-07-31T14:46:28;7.57;;;3.22;;
4873;SDS011;2451;49.970;9.068;2023-07-31T14:48:54;7.25;;;2.85;;
4873;SDS011;2451;49.970;9.068;2023-07-31T14:51:19;5.75;;;2.67;;
4873;SDS011;2451;49.970;9.068;2023-07-31T14:53:45;6.68;;;2.92;;
4873;SDS011;2451;49.970;9.068;2023-07-31T14:56:12;7.38;;;3.03;;
4873;SDS011;2451;49.970;9.068;2023-07-31T14:58:37;4.75;;;2.90;;
4873;SDS011;2451;49.970;9.068;2023-07-31T15:01:03;6.10;;;2.85;;
4873;SDS011;2451;49.970;9.068;2023-07-31T15:03:28;5.80;;;2.58;;
4873;SDS011;2451;49.970;9.068;2023-07-31T15:05:54;4.80;;;2.60;;
4873;SDS011;2451;49.970;9.068;2023-07-31T15:08:20;6.70;;;2.60;;
4873;SDS011;2451;49.970;9.068;2023-07-31T15:10:45;5.93;;;2.75;;
4873;SDS011;2451;49.970;9.068;2023-07-31T15:13:11;9.07;;;3.40;;
4873;SDS011;2451;49.970;9.068;2023-07-31T15:15:36;9.48;;;3.00;;
4873;SDS011;2451;49.970;9.068;2023-07-31T15:18:02;6.93;;;2.70;;
4873;SDS011;2451;49.970;9.068;2023-07-31T15:20:28;8.35;;;3.08;;
4873;SDS011;2451;49.970;9.068;2023-07-31T15:22:55;5.00;;;2.67;;
4873;SDS011;2451;49.970;9.068;2023-07-31T15:25:20;8.10;;;3.10;;
4873;SDS011;2451;49.970;9.068;2023-07-31T15:27:46;5.80;;;2.83;;